createdAt,value
2023-03-28T00:01:31.529Z,97799.70
2023-03-28T00:03:59.707Z,97798.30
2023-03-28T00:06:29.041Z,97792.23
2023-03-28T00:08:57.695Z,97797.52
2023-03-28T00:11:31.198Z,97793.42
2023-03-28T00:14:03.579Z,97790.00
2023-03-28T00:16:39.459Z,97790.65
2023-03-28T00:19:09.325Z,97781.70
2023-03-28T00:21:39.894Z,97783.02
2023-03-28T00:24:11.044Z,97789.66
2023-03-28T00:26:39.337Z,97786.59
2023-03-28T00:29:09.193Z,97790.38
2023-03-28T00:31:39.104Z,97792.00
2023-03-28T00:34:07.198Z,97792.58
2023-03-28T00:36:36.250Z,97791.04
2023-03-28T00:39:10.517Z,97787.87
2023-03-28T00:41:41.654Z,97783.90
2023-03-28T00:44:41.142Z,97783.48
2023-03-28T00:47:15.406Z,97771.84
2023-03-28T00:49:44.908Z,97771.62
2023-03-28T00:52:14.122Z,97769.54
2023-03-28T00:54:42.331Z,97765.14
2023-03-28T00:57:11.434Z,97766.48
2023-03-28T00:59:41.343Z,97760.98
2023-03-28T01:02:11.187Z,97755.89
2023-03-28T01:04:49.510Z,97743.91
2023-03-28T01:07:21.600Z,97735.46
2023-03-28T01:09:49.852Z,97748.73
2023-03-28T01:12:17.804Z,97750.23
2023-03-28T01:14:46.578Z,97744.02
2023-03-28T01:17:16.180Z,97736.59
2023-03-28T01:20:20.899Z,97736.11
2023-03-28T01:22:58.386Z,97733.23
2023-03-28T01:25:59.697Z,97735.59
2023-03-28T01:28:42.478Z,97727.26
2023-03-28T01:31:44.978Z,97718.11
2023-03-28T01:34:56.766Z,97720.60
2023-03-28T01:37:44.388Z,97724.67
2023-03-28T01:40:26.088Z,97730.88
2023-03-28T01:43:21.634Z,97729.29
2023-03-28T01:46:18.855Z,97734.25
2023-03-28T01:49:17.136Z,97736.09
2023-03-28T01:51:57.950Z,97729.54
2023-03-28T01:54:35.851Z,97727.41
2023-03-28T01:57:47.701Z,97725.62
2023-03-28T02:00:22.127Z,97712.52
2023-03-28T02:03:28.023Z,97705.48
2023-03-28T02:06:04.735Z,97700.98
2023-03-28T02:08:38.061Z,97697.45
2023-03-28T02:11:29.683Z,97700.74
2023-03-28T02:14:19.827Z,97702.83
2023-03-28T02:16:54.640Z,97696.20
2023-03-28T02:19:51.708Z,97691.88
2023-03-28T02:22:36.001Z,97686.52
2023-03-28T02:25:15.052Z,97686.62
2023-03-28T02:28:09.216Z,97686.25
2023-03-28T02:31:16.810Z,97699.93
2023-03-28T02:33:47.397Z,97698.66
2023-03-28T02:36:37.903Z,97695.58
2023-03-28T02:39:32.656Z,97697.93
2023-03-28T02:42:41.623Z,97706.97
2023-03-28T02:45:22.415Z,97703.44
2023-03-28T02:48:02.189Z,97700.39
2023-03-28T02:50:50.907Z,97692.32
2023-03-28T02:53:35.396Z,97688.71
2023-03-28T02:56:25.133Z,97695.42
2023-03-28T02:59:30.823Z,97714.27
2023-03-28T03:01:59.933Z,97705.34
2023-03-28T03:04:28.033Z,97701.94
2023-03-28T03:06:56.185Z,97700.11
2023-03-28T03:09:27.655Z,97685.45
2023-03-28T03:11:56.987Z,97682.15
2023-03-28T03:14:26.537Z,97673.45
2023-03-28T03:16:57.488Z,97671.39
2023-03-28T03:19:27.126Z,97665.11
2023-03-28T03:21:55.641Z,97655.86
2023-03-28T03:24:25.206Z,97649.26
2023-03-28T03:26:53.644Z,97645.20
2023-03-28T03:29:24.530Z,97640.65
2023-03-28T03:31:53.825Z,97634.77
2023-03-28T03:34:36.872Z,97628.70
2023-03-28T03:37:05.660Z,97621.49
2023-03-28T03:39:36.263Z,97619.74
2023-03-28T03:42:05.157Z,97616.92
2023-03-28T03:44:35.119Z,97609.27
2023-03-28T03:47:03.738Z,97613.48
2023-03-28T03:49:34.207Z,97615.05
2023-03-28T03:52:04.624Z,97624.16
2023-03-28T03:54:38.281Z,97620.98
2023-03-28T03:57:07.719Z,97616.14
2023-03-28T03:59:36.426Z,97609.05
2023-03-28T04:02:05.091Z,97601.91
2023-03-28T04:04:53.877Z,97606.50
2023-03-28T04:07:25.877Z,97609.66
2023-03-28T04:09:57.258Z,97598.70
2023-03-28T04:12:27.588Z,97592.83
2023-03-28T04:14:56.928Z,97590.40
2023-03-28T04:17:41.619Z,97589.52
2023-03-28T04:20:19.715Z,97587.66
2023-03-28T04:23:06.096Z,97584.14
2023-03-28T04:25:41.612Z,97588.52
2023-03-28T04:28:31.444Z,97580.06
2023-03-28T04:31:04.763Z,97578.80
2023-03-28T04:33:38.564Z,97575.53
2023-03-28T04:36:09.788Z,97570.27
2023-03-28T04:38:38.080Z,97569.66
2023-03-28T04:41:19.220Z,97577.61
2023-03-28T04:44:06.409Z,97590.22
2023-03-28T04:46:39.554Z,97591.94
2023-03-28T04:49:14.208Z,97589.27
2023-03-28T04:51:44.010Z,97590.36
2023-03-28T04:54:13.079Z,97585.84
2023-03-28T04:59:07.189Z,97578.52
2023-03-28T05:01:36.632Z,97577.78
2023-03-28T05:04:26.696Z,97574.02
2023-03-28T05:06:57.874Z,97571.70
2023-03-28T05:09:26.490Z,97573.17
2023-03-28T05:11:54.867Z,97568.30
2023-03-28T05:14:24.460Z,97568.06
2023-03-28T05:16:58.010Z,97560.83
2023-03-28T05:19:40.832Z,97552.60
2023-03-28T05:22:14.087Z,97560.17
2023-03-28T05:24:43.315Z,97540.73
2023-03-28T05:27:18.778Z,97527.59
2023-03-28T05:29:47.465Z,97522.52
2023-03-28T05:32:19.033Z,97522.23
2023-03-28T05:34:47.351Z,97510.72
2023-03-28T05:37:15.456Z,97519.11
2023-03-28T05:39:52.961Z,97504.75
2023-03-28T05:42:21.284Z,97520.27
2023-03-28T05:44:51.803Z,97522.48
2023-03-28T05:47:39.483Z,97511.20
2023-03-28T05:50:08.831Z,97501.72
2023-03-28T05:52:37.747Z,97504.31
2023-03-28T05:55:07.841Z,97494.20
2023-03-28T05:57:36.428Z,97487.30
2023-03-28T06:00:14.721Z,97478.52
2023-03-28T06:02:52.078Z,97465.16
2023-03-28T06:05:22.779Z,97465.68
2023-03-28T06:07:51.351Z,97462.15
2023-03-28T06:10:26.300Z,97457.83
2023-03-28T06:13:07.971Z,97450.20
2023-03-28T06:15:36.515Z,97447.39
2023-03-28T06:18:06.124Z,97443.35
2023-03-28T06:20:35.758Z,97441.37
2023-03-28T06:23:04.643Z,97450.00
2023-03-28T06:25:33.780Z,97442.45
2023-03-28T06:28:02.684Z,97439.88
2023-03-28T06:30:33.004Z,97438.38
2023-03-28T06:33:03.079Z,97435.30
2023-03-28T06:35:31.169Z,97435.98
2023-03-28T06:37:59.965Z,97430.98
2023-03-28T06:40:28.665Z,97431.63
2023-03-28T06:42:58.162Z,97429.55
2023-03-28T06:45:52.580Z,97429.02
2023-03-28T06:48:22.739Z,97426.02
2023-03-28T06:51:27.280Z,97421.35
2023-03-28T06:53:56.229Z,97417.76
2023-03-28T06:56:29.381Z,97412.34
2023-03-28T06:58:59.881Z,97409.17
2023-03-28T07:01:30.059Z,97409.25
2023-03-28T07:04:14.480Z,97416.73
2023-03-28T07:06:43.744Z,97415.68
2023-03-28T07:09:12.766Z,97421.07
2023-03-28T07:11:46.296Z,97419.47
2023-03-28T07:14:15.435Z,97415.53
2023-03-28T07:16:43.755Z,97425.08
2023-03-28T07:19:16.326Z,97426.09
2023-03-28T07:21:46.938Z,97426.33
2023-03-28T07:24:15.870Z,97427.14
2023-03-28T07:29:40.450Z,97421.45
2023-03-28T07:32:09.064Z,97419.17
2023-03-28T07:34:37.493Z,97416.66
2023-03-28T07:37:08.350Z,97415.64
2023-03-28T07:40:12.727Z,97417.90
2023-03-28T07:42:42.607Z,97416.55
2023-03-28T07:45:13.576Z,97417.55
2023-03-28T07:47:44.911Z,97414.98
2023-03-28T07:50:13.404Z,97415.27
2023-03-28T07:52:45.730Z,97412.82
2023-03-28T07:55:14.145Z,97413.14
2023-03-28T07:57:45.956Z,97411.77
2023-03-28T08:00:25.541Z,97408.54
2023-03-28T08:03:14.127Z,97409.77
2023-03-28T08:05:51.737Z,97406.72
2023-03-28T08:08:21.819Z,97401.73
2023-03-28T08:11:02.618Z,97400.66
2023-03-28T08:13:31.620Z,97400.10
2023-03-28T08:16:03.619Z,97397.13
2023-03-28T08:18:32.573Z,97395.38
2023-03-28T08:21:02.585Z,97398.76
2023-03-28T08:23:33.885Z,97396.86
2023-03-28T08:26:18.875Z,97399.09
2023-03-28T08:28:51.270Z,97396.30
2023-03-28T08:31:23.558Z,97398.51
2023-03-28T08:33:54.092Z,97402.77
2023-03-28T08:36:27.225Z,97404.08
2023-03-28T08:39:00.885Z,97409.44
2023-03-28T08:41:38.869Z,97402.81
2023-03-28T08:44:13.320Z,97406.01
2023-03-28T08:46:47.101Z,97408.69
2023-03-28T08:49:17.517Z,97409.65
2023-03-28T08:51:49.574Z,97404.50
2023-03-28T08:54:37.156Z,97401.66
2023-03-28T08:57:08.576Z,97403.64
2023-03-28T08:59:49.319Z,97401.55
2023-03-28T09:02:23.766Z,97407.47
2023-03-28T09:05:02.070Z,97405.54
2023-03-28T09:07:46.726Z,97405.55
2023-03-28T09:10:18.924Z,97401.30
2023-03-28T09:13:11.558Z,97399.20
2023-03-28T09:16:15.316Z,97396.95
2023-03-28T09:19:03.520Z,97398.88
2023-03-28T09:21:44.215Z,97388.39
2023-03-28T09:24:31.689Z,97387.17
2023-03-28T09:27:32.304Z,97381.79
2023-03-28T09:30:15.661Z,97383.64
2023-03-28T09:32:44.128Z,97376.86
2023-03-28T09:35:20.423Z,97378.11
2023-03-28T09:38:19.322Z,97372.30
2023-03-28T09:40:52.340Z,97371.86
2023-03-28T09:43:40.890Z,97366.73
2023-03-28T09:46:34.309Z,97368.56
2023-03-28T09:49:28.711Z,97371.28
2023-03-28T09:52:00.607Z,97368.52
2023-03-28T09:54:33.386Z,97364.25
2023-03-28T09:57:03.836Z,97369.06
2023-03-28T09:59:51.001Z,97366.02
2023-03-28T10:02:32.461Z,97364.30
2023-03-28T10:05:06.117Z,97363.62
2023-03-28T10:07:57.046Z,97360.65
2023-03-28T10:10:37.466Z,97359.71
2023-03-28T10:13:15.858Z,97355.52
2023-03-28T10:15:50.184Z,97351.95
2023-03-28T10:18:20.332Z,97356.01
2023-03-28T10:20:56.989Z,97354.84
2023-03-28T10:23:26.145Z,97353.65
2023-03-28T10:25:56.267Z,97359.05
2023-03-28T10:28:33.112Z,97353.50
2023-03-28T10:31:01.971Z,97359.59
2023-03-28T10:33:53.068Z,97358.42
2023-03-28T10:36:48.687Z,97356.77
2023-03-28T10:39:29.120Z,97354.87
2023-03-28T10:42:16.779Z,97353.62
2023-03-28T10:45:42.608Z,97350.66
2023-03-28T10:48:23.947Z,97352.30
2023-03-28T10:50:53.876Z,97349.31
2023-03-28T10:53:27.330Z,97349.84
2023-03-28T10:56:14.426Z,97341.95
2023-03-28T10:58:57.270Z,97347.67
2023-03-28T11:01:55.230Z,97343.83
2023-03-28T11:04:44.924Z,97343.36
2023-03-28T11:07:41.527Z,97342.63
2023-03-28T11:10:42.975Z,97337.89
2023-03-28T11:13:36.052Z,97334.56
2023-03-28T11:16:42.506Z,97327.60
2023-03-28T11:19:47.548Z,97331.29
2023-03-28T11:22:47.552Z,97327.51
2023-03-28T11:25:42.673Z,97325.67
2023-03-28T11:29:02.169Z,97323.84
2023-03-28T11:31:42.478Z,97328.45
2023-03-28T11:34:24.246Z,97327.23
2023-03-28T11:36:58.598Z,97325.45
2023-03-28T11:39:44.932Z,97322.13
2023-03-28T11:42:24.030Z,97322.46
2023-03-28T11:45:28.067Z,97322.83
2023-03-28T11:48:21.498Z,97318.23
2023-03-28T11:51:06.590Z,97314.52
2023-03-28T11:53:46.640Z,97314.45
2023-03-28T11:56:49.119Z,97314.60
2023-03-28T11:59:37.115Z,97313.19
2023-03-28T12:02:19.299Z,97310.31
2023-03-28T12:04:51.224Z,97309.89
2023-03-28T12:07:22.357Z,97307.67
2023-03-28T12:10:11.478Z,97310.26
2023-03-28T12:12:55.355Z,97308.64
2023-03-28T12:15:31.280Z,97308.97
2023-03-28T12:18:13.213Z,97310.25
2023-03-28T12:20:48.627Z,97311.05
2023-03-28T12:24:06.262Z,97307.77
2023-03-28T12:27:18.345Z,97308.27
2023-03-28T12:30:15.223Z,97308.76
2023-03-28T12:33:01.997Z,97310.15
2023-03-28T12:35:42.973Z,97304.98
2023-03-28T12:38:42.459Z,97303.83
2023-03-28T12:41:24.432Z,97300.97
2023-03-28T12:44:16.174Z,97297.23
2023-03-28T12:46:53.757Z,97299.27
2023-03-28T12:49:37.755Z,97295.95
2023-03-28T12:52:12.466Z,97298.38
2023-03-28T12:55:14.167Z,97300.91
2023-03-28T12:57:46.670Z,97301.59
2023-03-28T13:00:55.786Z,97299.59
2023-03-28T13:04:13.847Z,97297.69
2023-03-28T13:07:04.303Z,97299.77
2023-03-28T13:09:57.595Z,97298.77
2023-03-28T13:12:47.259Z,97300.41
2023-03-28T13:15:16.328Z,97305.09
2023-03-28T13:18:22.674Z,97301.46
2023-03-28T13:20:52.667Z,97315.30
2023-03-28T13:23:28.397Z,97328.52
2023-03-28T13:25:57.741Z,97336.16
2023-03-28T13:28:35.733Z,97339.85
2023-03-28T13:31:12.188Z,97346.46
2023-03-28T13:34:08.183Z,97352.45
2023-03-28T13:36:50.746Z,97356.97
2023-03-28T13:39:21.500Z,97360.20
2023-03-28T13:41:50.222Z,97361.05
2023-03-28T13:44:24.559Z,97365.98
2023-03-28T13:46:53.484Z,97370.15
2023-03-28T13:49:31.490Z,97375.70
2023-03-28T13:52:07.202Z,97377.50
2023-03-28T13:54:36.664Z,97383.92
2023-03-28T13:57:08.315Z,97379.66
2023-03-28T13:59:44.543Z,97382.73
2023-03-28T14:02:29.610Z,97388.73
2023-03-28T14:05:05.458Z,97383.13
2023-03-28T14:07:33.710Z,97392.98
2023-03-28T14:10:02.515Z,97399.98
2023-03-28T14:12:35.339Z,97404.41
2023-03-28T14:15:04.036Z,97408.51
2023-03-28T14:17:33.149Z,97414.68
2023-03-28T14:20:06.742Z,97422.00
2023-03-28T14:23:00.262Z,97424.13
2023-03-28T14:25:30.783Z,97431.73
2023-03-28T14:28:11.833Z,97435.86
2023-03-28T14:30:42.278Z,97434.09
2023-03-28T14:33:14.280Z,97436.86
2023-03-28T14:35:43.242Z,97436.45
2023-03-28T14:38:16.873Z,97437.38
2023-03-28T14:40:45.887Z,97439.17
2023-03-28T14:43:19.506Z,97444.41
2023-03-28T14:45:50.484Z,97450.17
2023-03-28T14:48:23.272Z,97450.99
2023-03-28T14:50:53.641Z,97451.89
2023-03-28T14:53:27.174Z,97453.16
2023-03-28T14:56:02.228Z,97451.95
2023-03-28T14:58:35.857Z,97454.63
2023-03-28T15:01:07.828Z,97461.42
2023-03-28T15:03:40.430Z,97473.57
2023-03-28T15:06:16.611Z,97475.89
2023-03-28T15:08:45.763Z,97480.42
2023-03-28T15:11:22.439Z,97484.04
2023-03-28T15:13:58.550Z,97488.77
2023-03-28T15:16:26.701Z,97489.98
2023-03-28T15:19:09.382Z,97495.17
2023-03-28T15:21:39.389Z,97502.11
2023-03-28T15:24:12.480Z,97510.55
2023-03-28T15:26:45.683Z,97518.33
2023-03-28T15:29:21.730Z,97523.84
2023-03-28T15:31:49.791Z,97531.45
2023-03-28T15:34:22.552Z,97536.27
2023-03-28T15:36:56.191Z,97547.50
2023-03-28T15:39:37.605Z,97558.11
2023-03-28T15:42:18.678Z,97559.58
2023-03-28T15:45:09.670Z,97561.98
2023-03-28T15:47:38.300Z,97567.46
2023-03-28T15:50:08.247Z,97573.90
2023-03-28T15:52:37.611Z,97581.35
2023-03-28T15:55:06.291Z,97581.83
2023-03-28T15:57:38.881Z,97583.97
2023-03-28T16:00:37.613Z,97589.80
2023-03-28T16:03:34.590Z,97595.05
2023-03-28T16:06:30.850Z,97597.07
2023-03-28T16:09:26.505Z,97600.98
2023-03-28T16:11:59.651Z,97611.21
2023-03-28T16:14:46.866Z,97614.23
2023-03-28T16:17:14.831Z,97615.44
2023-03-28T16:19:52.176Z,97621.40
2023-03-28T16:22:22.444Z,97636.23
2023-03-28T16:24:51.709Z,97644.23
2023-03-28T16:27:27.588Z,97641.59
2023-03-28T16:29:57.355Z,97644.02
2023-03-28T16:32:27.407Z,97646.61
2023-03-28T16:35:27.178Z,97648.08
2023-03-28T16:37:59.059Z,97659.02
2023-03-28T16:40:27.833Z,97657.14
2023-03-28T16:42:56.141Z,97668.45
2023-03-28T16:45:24.671Z,97676.66
2023-03-28T16:47:52.890Z,97682.84
2023-03-28T16:50:21.435Z,97687.10
2023-03-28T16:52:49.954Z,97689.08
2023-03-28T16:55:19.016Z,97693.38
2023-03-28T16:57:47.612Z,97701.27
2023-03-28T17:00:18.314Z,97706.86
2023-03-28T17:02:47.826Z,97705.80
2023-03-28T17:05:17.270Z,97718.22
2023-03-28T17:07:45.538Z,97721.38
2023-03-28T17:10:42.131Z,97724.27
2023-03-28T17:13:11.119Z,97726.06
2023-03-28T17:15:40.381Z,97739.81
2023-03-28T17:18:09.907Z,97741.09
2023-03-28T17:20:38.078Z,97744.71
2023-03-28T17:23:06.619Z,97751.66
2023-03-28T17:25:41.655Z,97754.66
2023-03-28T17:28:13.795Z,97763.74
2023-03-28T17:30:44.226Z,97766.45
2023-03-28T17:33:12.597Z,97771.21
2023-03-28T17:35:40.621Z,97774.44
2023-03-28T17:38:14.569Z,97775.80
2023-03-28T17:40:47.386Z,97788.34
2023-03-28T17:43:15.594Z,97793.40
2023-03-28T17:45:44.403Z,97797.02
2023-03-28T17:48:12.725Z,97791.01
2023-03-28T17:50:43.410Z,97794.70
2023-03-28T17:53:11.480Z,97794.70
2023-03-28T17:55:39.562Z,97802.42
2023-03-28T17:58:08.077Z,97799.55
2023-03-28T18:00:38.122Z,97795.10
2023-03-28T18:03:08.113Z,97800.21
2023-03-28T18:06:02.538Z,97802.54
2023-03-28T18:08:31.631Z,97804.86
2023-03-28T18:11:11.934Z,97798.84
2023-03-28T18:13:41.691Z,97805.86
2023-03-28T18:16:11.561Z,97803.89
2023-03-28T18:18:43.439Z,97806.66
2023-03-28T18:21:13.345Z,97806.34
2023-03-28T18:23:43.650Z,97803.38
2023-03-28T18:26:12.170Z,97807.11
2023-03-28T18:28:41.865Z,97809.78
2023-03-28T18:31:14.789Z,97821.27
2023-03-28T18:33:43.056Z,97827.21
2023-03-28T18:36:12.008Z,97831.59
2023-03-28T18:38:43.164Z,97836.27
2023-03-28T18:41:12.844Z,97844.34
2023-03-28T18:43:43.303Z,97851.02
2023-03-28T18:46:15.329Z,97857.25
2023-03-28T18:48:45.749Z,97858.80
2023-03-28T18:51:14.127Z,97863.73
2023-03-28T18:53:45.399Z,97874.66
2023-03-28T18:56:15.330Z,97867.52
2023-03-28T18:58:44.086Z,97871.94
2023-03-28T19:01:12.728Z,97881.05
2023-03-28T19:03:43.288Z,97884.38
2023-03-28T19:06:15.023Z,97892.10
2023-03-28T19:08:45.847Z,97885.76
2023-03-28T19:11:16.830Z,97900.16
2023-03-28T19:13:44.778Z,97899.98
2023-03-28T19:16:14.840Z,97901.84
2023-03-28T19:18:43.940Z,97906.24
2023-03-28T19:21:13.737Z,97909.71
2023-03-28T19:23:42.195Z,97900.55
2023-03-28T19:26:11.666Z,97896.55
2023-03-28T19:28:40.452Z,97907.80
2023-03-28T19:31:10.362Z,97904.33
2023-03-28T19:33:38.769Z,97900.90
2023-03-28T19:36:08.080Z,97902.80
2023-03-28T19:38:37.725Z,97898.96
2023-03-28T19:41:10.449Z,97903.36
2023-03-28T19:43:45.704Z,97900.21
2023-03-28T19:46:25.021Z,97908.14
2023-03-28T19:48:57.661Z,97915.52
2023-03-28T19:51:26.429Z,97925.48
2023-03-28T19:53:54.735Z,97934.43
2023-03-28T19:56:23.602Z,97937.34
2023-03-28T19:58:54.386Z,97938.41
2023-03-28T20:01:23.954Z,97936.48
2023-03-28T20:03:53.458Z,97951.15
2023-03-28T20:06:22.234Z,97947.48
2023-03-28T20:08:56.514Z,97962.11
2023-03-28T20:11:24.811Z,97961.73
2023-03-28T20:13:52.808Z,97965.73
2023-03-28T20:16:25.539Z,97963.59
2023-03-28T20:18:57.301Z,97976.14
2023-03-28T20:21:28.511Z,97977.20
2023-03-28T20:23:59.170Z,97986.23
2023-03-28T20:26:27.781Z,97985.76
2023-03-28T20:28:59.568Z,97981.29
2023-03-28T20:31:29.781Z,97991.26
2023-03-28T20:33:58.288Z,97992.13
2023-03-28T20:36:27.399Z,97986.77
2023-03-28T20:38:56.612Z,97994.99
2023-03-28T20:41:25.642Z,98002.41
2023-03-28T20:44:03.638Z,98003.41
2023-03-28T20:46:34.546Z,98004.26
2023-03-28T20:49:08.428Z,98008.89
2023-03-28T20:51:39.294Z,98010.91
2023-03-28T20:54:07.825Z,98018.61
2023-03-28T20:56:55.944Z,98020.00
2023-03-28T20:59:27.291Z,98024.48
2023-03-28T21:01:56.774Z,98034.12
2023-03-28T21:04:25.416Z,98035.75
2023-03-28T21:07:01.738Z,98048.48
2023-03-28T21:09:30.468Z,98050.35
2023-03-28T21:11:59.605Z,98044.56
2023-03-28T21:14:28.337Z,98050.13
2023-03-28T21:16:58.205Z,98059.31
2023-03-28T21:19:26.611Z,98068.02
2023-03-28T21:21:57.369Z,98064.52
2023-03-28T21:24:26.147Z,98076.31
2023-03-28T21:26:54.223Z,98070.91
2023-03-28T21:29:22.319Z,98077.92
2023-03-28T21:31:50.602Z,98077.49
2023-03-28T21:34:18.998Z,98074.88
2023-03-28T21:36:48.570Z,98085.98
2023-03-28T21:39:20.169Z,98081.96
2023-03-28T21:41:54.290Z,98093.95
2023-03-28T21:44:22.474Z,98092.55
2023-03-28T21:46:51.391Z,98097.14
2023-03-28T21:49:19.626Z,98101.55
2023-03-28T21:51:47.623Z,98102.05
2023-03-28T21:54:16.622Z,98105.23
2023-03-28T21:56:46.233Z,98113.80
2023-03-28T21:59:14.377Z,98119.51
2023-03-28T22:01:44.093Z,98111.79
2023-03-28T22:04:12.128Z,98122.61
2023-03-28T22:06:40.111Z,98125.50
2023-03-28T22:09:09.659Z,98122.98
2023-03-28T22:11:37.770Z,98124.65
2023-03-28T22:14:08.556Z,98131.36
2023-03-28T22:16:38.672Z,98128.89
2023-03-28T22:19:08.792Z,98137.65
2023-03-28T22:21:37.559Z,98143.36
2023-03-28T22:24:13.124Z,98150.12
2023-03-28T22:26:45.064Z,98153.64
2023-03-28T22:29:14.551Z,98160.21
2023-03-28T22:31:42.966Z,98167.77
2023-03-28T22:34:13.258Z,98167.45
2023-03-28T22:40:46.608Z,98181.27
2023-03-28T22:43:16.229Z,98187.81
2023-03-28T22:45:47.593Z,98187.17
2023-03-28T22:48:16.283Z,98184.89
2023-03-28T22:50:44.365Z,98181.13
2023-03-28T22:53:14.471Z,98181.58
2023-03-28T22:55:42.672Z,98182.46
2023-03-28T22:58:13.518Z,98182.40
2023-03-28T23:00:44.016Z,98178.55
2023-03-28T23:03:12.407Z,98180.64
2023-03-28T23:05:42.254Z,98186.05
2023-03-28T23:08:11.243Z,98183.38
2023-03-28T23:10:40.635Z,98189.81
2023-03-28T23:13:10.624Z,98192.50
2023-03-28T23:15:40.304Z,98194.23
2023-03-28T23:18:09.134Z,98192.79
2023-03-28T23:20:38.292Z,98198.96
2023-03-28T23:23:07.131Z,98207.63
2023-03-28T23:25:39.105Z,98207.41
2023-03-28T23:28:07.452Z,98212.29
2023-03-28T23:30:40.384Z,98215.44
2023-03-28T23:33:09.532Z,98219.58
2023-03-28T23:35:37.759Z,98213.48
2023-03-28T23:38:07.670Z,98220.53
2023-03-28T23:40:36.227Z,98224.64
2023-03-28T23:43:08.100Z,98226.90
2023-03-28T23:45:37.712Z,98224.54
2023-03-28T23:48:07.598Z,98227.38
2023-03-28T23:50:36.121Z,98227.70
2023-03-28T23:53:04.999Z,98236.13
2023-03-28T23:55:34.594Z,98239.44
2023-03-28T23:58:04.597Z,98241.00
